createdAt,value
2017-09-08T00:01:08.115Z,34.40
2017-09-08T00:03:36.712Z,34.40
2017-09-08T00:06:05.944Z,34.50
2017-09-08T00:08:34.396Z,34.50
2017-09-08T00:11:02.464Z,34.50
2017-09-08T00:13:31.597Z,34.40
2017-09-08T00:16:00.176Z,34.50
2017-09-08T00:18:28.717Z,34.50
2017-09-08T00:20:57.292Z,34.50
2017-09-08T00:23:25.907Z,34.50
2017-09-08T00:25:54.577Z,34.50
2017-09-08T00:28:23.313Z,34.50
2017-09-08T00:30:51.399Z,34.50
2017-09-08T00:33:20.757Z,34.40
2017-09-08T00:35:49.372Z,34.30
2017-09-08T00:38:18.011Z,34.30
2017-09-08T00:40:46.699Z,34.30
2017-09-08T00:43:15.416Z,34.30
2017-09-08T00:45:44.118Z,34.30
2017-09-08T00:48:13.496Z,34.40
2017-09-08T00:50:42.192Z,34.40
2017-09-08T00:53:10.933Z,34.50
2017-09-08T00:55:39.433Z,34.50
2017-09-08T00:58:09.577Z,34.50
2017-09-08T01:00:38.184Z,34.50
2017-09-08T01:03:06.905Z,34.50
2017-09-08T01:05:35.456Z,34.50
2017-09-08T01:08:04.029Z,34.50
2017-09-08T01:10:32.761Z,34.50
2017-09-08T01:13:01.756Z,34.40
2017-09-08T01:15:31.443Z,34.30
2017-09-08T01:17:59.922Z,34.20
2017-09-08T01:20:28.551Z,34.30
2017-09-08T01:22:56.992Z,34.30
2017-09-08T01:25:25.572Z,34.30
2017-09-08T01:27:53.729Z,34.30
2017-09-08T01:30:22.231Z,34.40
2017-09-08T01:32:50.871Z,34.40
2017-09-08T01:35:19.076Z,34.30
2017-09-08T01:37:47.734Z,34.30
2017-09-08T01:40:16.219Z,34.10
2017-09-08T01:42:44.951Z,34.00
2017-09-08T01:45:13.564Z,33.90
2017-09-08T01:47:41.984Z,33.80
2017-09-08T01:50:10.608Z,33.80
2017-09-08T01:52:39.912Z,33.90
2017-09-08T01:55:09.164Z,33.90
2017-09-08T01:57:37.904Z,33.90
2017-09-08T02:00:07.152Z,33.80
2017-09-08T02:02:35.648Z,33.80
2017-09-08T02:05:04.332Z,33.80
2017-09-08T02:07:32.903Z,33.80
2017-09-08T02:10:02.321Z,33.80
2017-09-08T02:12:31.172Z,33.80
2017-09-08T02:14:59.605Z,33.80
2017-09-08T02:17:28.576Z,33.80
2017-09-08T02:19:57.277Z,33.90
2017-09-08T02:22:25.340Z,33.80
2017-09-08T02:24:54.557Z,33.80
2017-09-08T02:27:23.129Z,33.80
2017-09-08T02:29:51.620Z,33.80
2017-09-08T02:32:20.261Z,33.80
2017-09-08T02:34:48.788Z,33.70
2017-09-08T02:37:16.891Z,33.70
2017-09-08T02:39:46.099Z,33.60
2017-09-08T02:42:14.980Z,33.60
2017-09-08T02:44:43.626Z,33.60
2017-09-08T02:47:12.056Z,33.70
2017-09-08T02:49:41.319Z,33.80
2017-09-08T02:52:09.805Z,33.70
2017-09-08T02:54:38.383Z,33.80
2017-09-08T02:57:07.236Z,34.00
2017-09-08T02:59:36.608Z,33.80
2017-09-08T03:02:05.327Z,33.80
2017-09-08T03:04:33.823Z,34.00
2017-09-08T03:07:02.343Z,33.90
2017-09-08T03:09:31.034Z,34.10
2017-09-08T03:11:59.871Z,34.20
2017-09-08T03:14:29.247Z,34.50
2017-09-08T03:16:57.964Z,34.50
2017-09-08T03:19:27.907Z,34.90
2017-09-08T03:21:56.532Z,34.80
2017-09-08T03:24:25.292Z,35.00
2017-09-08T03:26:54.187Z,35.20
2017-09-08T03:29:22.668Z,35.20
2017-09-08T03:31:51.165Z,35.30
2017-09-08T03:34:20.040Z,35.40
2017-09-08T03:36:48.717Z,35.60
2017-09-08T03:39:17.209Z,35.80
2017-09-08T03:41:45.384Z,35.60
2017-09-08T03:44:13.855Z,35.50
2017-09-08T03:46:42.355Z,35.40
2017-09-08T03:49:11.142Z,35.50
2017-09-08T03:51:39.718Z,35.50
2017-09-08T03:54:08.147Z,35.60
2017-09-08T03:56:37.589Z,36.00
2017-09-08T03:59:06.307Z,36.00
2017-09-08T04:01:35.224Z,36.00
2017-09-08T04:04:04.012Z,36.20
2017-09-08T04:06:32.320Z,36.50
2017-09-08T04:09:00.848Z,36.60
2017-09-08T04:11:29.643Z,36.60
2017-09-08T04:13:58.105Z,36.80
2017-09-08T04:16:26.807Z,37.00
2017-09-08T04:18:55.613Z,37.20
2017-09-08T04:21:24.416Z,37.40
2017-09-08T04:23:53.236Z,37.40
2017-09-08T04:26:22.128Z,37.70
2017-09-08T04:28:50.589Z,37.90
2017-09-08T04:31:19.148Z,38.10
2017-09-08T04:33:47.952Z,39.40
2017-09-08T04:36:16.034Z,40.10
2017-09-08T04:38:45.240Z,42.20
2017-09-08T04:41:14.620Z,41.70
2017-09-08T04:43:43.268Z,41.70
2017-09-08T04:46:11.807Z,41.80
2017-09-08T04:48:41.211Z,41.40
2017-09-08T04:51:09.284Z,41.40
2017-09-08T04:53:38.651Z,40.90
2017-09-08T04:56:07.503Z,40.90
2017-09-08T04:58:35.912Z,41.80
2017-09-08T05:01:04.412Z,42.70
2017-09-08T05:03:33.334Z,42.40
2017-09-08T05:06:02.738Z,43.60
2017-09-08T05:08:31.888Z,43.30
2017-09-08T05:11:00.596Z,43.30
2017-09-08T05:13:29.376Z,42.80
2017-09-08T05:15:58.124Z,42.80
2017-09-08T05:18:27.585Z,41.70
2017-09-08T05:20:56.367Z,41.70
2017-09-08T05:23:25.321Z,41.70
2017-09-08T05:25:53.850Z,41.60
2017-09-08T05:28:22.370Z,41.80
2017-09-08T05:30:51.664Z,42.80
2017-09-08T05:33:21.000Z,43.30
2017-09-08T05:35:49.619Z,43.20
2017-09-08T05:38:17.736Z,43.80
2017-09-08T05:40:47.400Z,44.40
2017-09-08T05:43:16.143Z,44.30
2017-09-08T05:45:44.516Z,44.80
2017-09-08T05:48:14.192Z,44.80
2017-09-08T05:50:42.256Z,44.80
2017-09-08T05:53:10.864Z,44.60
2017-09-08T05:55:39.406Z,43.70
2017-09-08T05:58:07.485Z,43.20
2017-09-08T06:00:36.372Z,42.70
2017-09-08T06:03:04.939Z,42.60
2017-09-08T06:05:33.455Z,43.00
2017-09-08T06:08:02.196Z,42.80
2017-09-08T06:10:31.687Z,42.40
2017-09-08T06:13:00.965Z,42.50
2017-09-08T06:15:29.592Z,42.40
2017-09-08T06:17:58.120Z,42.70
2017-09-08T06:20:26.636Z,42.50
2017-09-08T06:22:56.012Z,42.80
2017-09-08T06:25:25.600Z,42.80
2017-09-08T06:27:54.746Z,43.30
2017-09-08T06:30:24.107Z,44.60
2017-09-08T06:32:53.004Z,44.60
2017-09-08T06:35:21.476Z,45.00
2017-09-08T06:37:50.076Z,45.50
2017-09-08T06:40:18.892Z,45.80
2017-09-08T06:42:48.068Z,46.20
2017-09-08T06:45:16.744Z,46.10
2017-09-08T06:47:45.699Z,45.40
2017-09-08T06:50:14.107Z,44.70
2017-09-08T06:52:42.712Z,44.40
2017-09-08T06:55:11.527Z,43.90
2017-09-08T06:57:40.848Z,43.50
2017-09-08T07:00:10.135Z,43.70
2017-09-08T07:02:39.366Z,43.70
2017-09-08T07:05:07.888Z,43.70
2017-09-08T07:07:36.573Z,43.20
2017-09-08T07:10:05.164Z,43.40
2017-09-08T07:12:33.751Z,43.20
2017-09-08T07:15:02.530Z,43.00
2017-09-08T07:17:31.448Z,43.10
2017-09-08T07:20:00.197Z,42.90
2017-09-08T07:35:36.653Z,43.20
2017-09-08T07:38:05.268Z,43.20
2017-09-08T07:40:33.344Z,43.20
2017-09-08T07:43:02.094Z,43.30
2017-09-08T07:45:30.736Z,43.20
2017-09-08T07:47:59.477Z,43.20
2017-09-08T07:50:28.047Z,43.20
2017-09-08T07:52:56.467Z,43.30
2017-09-08T07:55:25.144Z,43.40
2017-09-08T07:57:53.748Z,43.40
2017-09-08T08:00:22.352Z,43.50
2017-09-08T08:02:51.628Z,43.50
2017-09-08T08:05:20.440Z,43.50
2017-09-08T08:07:49.160Z,43.50
2017-09-08T08:10:17.872Z,43.40
2017-09-08T08:12:46.548Z,43.40
2017-09-08T08:15:15.172Z,43.50
2017-09-08T08:17:43.905Z,44.10
2017-09-08T08:20:12.509Z,44.90
2017-09-08T08:22:41.020Z,45.70
2017-09-08T08:25:09.663Z,45.80
2017-09-08T08:27:38.660Z,44.60
2017-09-08T08:30:07.380Z,43.90
2017-09-08T08:32:35.957Z,43.50
2017-09-08T08:35:04.764Z,43.10
2017-09-08T08:37:35.016Z,43.00
2017-09-08T08:40:04.639Z,43.00
2017-09-08T08:42:33.900Z,42.90
2017-09-08T08:45:02.584Z,42.90
2017-09-08T08:47:31.396Z,43.10
2017-09-08T08:49:59.940Z,43.50
2017-09-08T08:52:28.010Z,43.30
2017-09-08T08:54:57.729Z,43.20
2017-09-08T08:57:26.228Z,43.10
2017-09-08T08:59:54.308Z,43.20
2017-09-08T09:02:23.017Z,43.30
2017-09-08T09:04:51.163Z,43.20
2017-09-08T09:09:54.164Z,43.40
2017-09-08T09:12:22.262Z,43.40
2017-09-08T09:14:50.348Z,43.40
2017-09-08T09:17:18.555Z,43.40
2017-09-08T09:19:46.643Z,43.40
2017-09-08T09:22:14.743Z,43.40
2017-09-08T09:24:42.935Z,43.30
2017-09-08T09:27:11.018Z,43.20
2017-09-08T09:29:39.108Z,43.20
2017-09-08T09:32:08.047Z,43.20
2017-09-08T09:34:36.222Z,43.10
2017-09-08T09:37:04.299Z,43.10
2017-09-08T09:39:32.793Z,43.00
2017-09-08T09:42:00.876Z,43.00
2017-09-08T09:44:28.955Z,42.80
2017-09-08T09:46:57.135Z,42.80
2017-09-08T09:49:25.204Z,42.90
2017-09-08T09:51:53.280Z,42.90
2017-09-08T09:54:22.794Z,42.90
2017-09-08T09:56:52.168Z,43.10
2017-09-08T09:59:21.552Z,43.10
2017-09-08T10:01:50.360Z,43.10
2017-09-08T10:04:18.973Z,43.20
2017-09-08T10:06:48.244Z,43.20
2017-09-08T10:09:17.061Z,43.20
2017-09-08T10:11:46.256Z,43.00
2017-09-08T10:14:14.318Z,43.00
2017-09-08T10:16:43.015Z,42.90
2017-09-08T10:19:11.740Z,42.80
2017-09-08T10:21:40.144Z,42.60
2017-09-08T10:24:08.848Z,42.70
2017-09-08T10:26:37.488Z,42.80
2017-09-08T10:29:06.840Z,42.40
2017-09-08T10:31:35.652Z,42.40
2017-09-08T10:34:03.844Z,42.50
2017-09-08T10:36:33.390Z,42.30
2017-09-08T10:39:02.063Z,42.30
2017-09-08T10:41:31.482Z,42.30
2017-09-08T10:43:59.557Z,42.30
2017-09-08T10:46:28.388Z,42.30
2017-09-08T10:48:57.032Z,42.10
2017-09-08T10:51:25.460Z,42.00
2017-09-08T10:53:53.941Z,42.00
2017-09-08T10:56:22.443Z,42.10
2017-09-08T10:58:50.980Z,41.80
2017-09-08T11:01:19.698Z,41.80
2017-09-08T11:03:48.973Z,41.70
2017-09-08T11:06:17.612Z,41.70
2017-09-08T11:08:45.831Z,41.60
2017-09-08T11:11:14.518Z,41.70
2017-09-08T11:13:43.267Z,41.50
2017-09-08T11:16:11.977Z,41.40
2017-09-08T11:18:40.515Z,41.40
2017-09-08T11:21:09.763Z,41.40
2017-09-08T11:23:38.506Z,41.30
2017-09-08T11:26:07.751Z,41.30
2017-09-08T11:28:36.276Z,41.30
2017-09-08T11:31:05.664Z,41.30
2017-09-08T11:33:40.058Z,41.30
2017-09-08T11:36:13.988Z,41.20
2017-09-08T11:38:42.732Z,41.00
2017-09-08T11:41:10.904Z,40.90
2017-09-08T11:43:41.684Z,41.00
2017-09-08T11:46:10.368Z,41.00
2017-09-08T11:48:38.919Z,41.00
2017-09-08T11:51:07.088Z,41.00
2017-09-08T11:53:35.805Z,40.90
2017-09-08T11:56:03.900Z,40.90
2017-09-08T11:58:32.680Z,40.80
2017-09-08T12:01:01.455Z,40.80
2017-09-08T12:03:29.533Z,40.80
2017-09-08T12:05:58.547Z,40.60
2017-09-08T12:08:27.080Z,40.60
2017-09-08T12:10:55.540Z,40.50
2017-09-08T12:13:24.876Z,40.40
2017-09-08T12:15:53.529Z,40.40
2017-09-08T12:18:22.775Z,40.30
2017-09-08T12:20:52.195Z,40.30
2017-09-08T12:23:20.870Z,40.30
2017-09-08T12:25:48.995Z,40.20
2017-09-08T12:28:18.476Z,40.10
2017-09-08T12:30:47.148Z,40.10
2017-09-08T12:33:15.224Z,40.00
2017-09-08T12:35:43.456Z,39.90
2017-09-08T12:38:11.539Z,39.80
2017-09-08T12:40:40.164Z,39.90
2017-09-08T12:43:08.958Z,39.80
2017-09-08T12:45:37.940Z,39.80
2017-09-08T12:48:06.464Z,39.80
2017-09-08T12:50:35.728Z,39.80
2017-09-08T12:53:04.212Z,39.80
2017-09-08T12:55:32.883Z,39.60
2017-09-08T12:58:01.548Z,39.60
2017-09-08T13:00:29.625Z,39.50
2017-09-08T13:02:58.124Z,39.50
2017-09-08T13:05:26.724Z,39.50
2017-09-08T13:07:55.340Z,39.50
2017-09-08T13:10:24.718Z,39.40
2017-09-08T13:12:53.532Z,39.40
2017-09-08T13:15:21.603Z,39.20
2017-09-08T13:17:49.692Z,39.10
2017-09-08T13:20:19.386Z,39.10
2017-09-08T13:31:15.194Z,39.00
2017-09-08T13:33:44.360Z,38.90
2017-09-08T13:36:12.427Z,38.90
2017-09-08T13:38:41.220Z,38.90
2017-09-08T13:41:09.297Z,38.80
2017-09-08T13:43:38.760Z,38.70
2017-09-08T13:46:07.208Z,38.70
2017-09-08T13:48:36.375Z,38.50
2017-09-08T13:51:04.455Z,38.50
2017-09-08T13:56:28.828Z,38.40
2017-09-08T13:58:57.361Z,38.30
2017-09-08T14:01:25.728Z,38.30
2017-09-08T14:03:53.901Z,38.30
2017-09-08T14:06:22.325Z,38.20
2017-09-08T14:08:50.824Z,38.20
2017-09-08T14:11:19.707Z,38.10
2017-09-08T14:13:47.774Z,38.00
2017-09-08T14:16:16.399Z,38.00
2017-09-08T14:18:45.779Z,37.80
2017-09-08T14:21:13.851Z,37.80
2017-09-08T14:23:42.484Z,37.60
2017-09-08T14:26:11.809Z,37.50
2017-09-08T14:28:40.428Z,37.50
2017-09-08T14:31:09.108Z,37.50
2017-09-08T14:33:37.655Z,37.50
2017-09-08T14:36:06.181Z,37.50
2017-09-08T14:38:34.860Z,37.40
2017-09-08T14:41:03.752Z,37.30
2017-09-08T14:43:32.532Z,37.20
2017-09-08T14:46:01.059Z,37.20
2017-09-08T14:48:30.868Z,37.10
2017-09-08T14:50:59.590Z,37.10
2017-09-08T14:53:28.095Z,37.00
2017-09-08T14:55:56.803Z,37.00
2017-09-08T14:58:25.412Z,37.00
2017-09-08T15:00:55.399Z,37.10
2017-09-08T15:03:23.588Z,37.10
2017-09-08T15:05:52.146Z,37.10
2017-09-08T15:08:20.736Z,37.10
2017-09-08T15:10:49.471Z,37.00
2017-09-08T15:13:18.719Z,37.00
2017-09-08T15:15:47.143Z,36.90
2017-09-08T15:18:15.906Z,36.90
2017-09-08T15:20:44.376Z,36.90
2017-09-08T15:23:12.875Z,36.90
2017-09-08T15:25:41.659Z,36.90
2017-09-08T15:28:10.408Z,36.80
2017-09-08T15:30:39.779Z,36.80
2017-09-08T15:33:08.092Z,36.80
2017-09-08T15:35:36.623Z,36.70
2017-09-08T15:38:05.161Z,36.70
2017-09-08T15:40:33.975Z,36.70
2017-09-08T15:43:02.764Z,36.70
2017-09-08T15:45:31.264Z,36.60
2017-09-08T15:47:59.976Z,36.50
2017-09-08T15:50:29.148Z,36.40
2017-09-08T15:52:57.895Z,36.40
2017-09-08T15:55:26.283Z,36.30
2017-09-08T15:57:54.340Z,36.40
2017-09-08T16:00:23.736Z,36.40
2017-09-08T16:02:51.887Z,36.40
2017-09-08T16:05:20.360Z,36.30
2017-09-08T16:07:49.000Z,36.20
2017-09-08T16:10:17.493Z,36.30
2017-09-08T16:12:46.109Z,36.30
2017-09-08T16:15:14.920Z,36.30
2017-09-08T16:17:43.136Z,36.30
2017-09-08T16:20:11.667Z,36.20
2017-09-08T16:22:40.224Z,36.20
2017-09-08T16:25:08.747Z,36.10
2017-09-08T16:27:37.332Z,36.20
2017-09-08T16:30:05.992Z,36.00
2017-09-08T16:32:34.945Z,36.10
2017-09-08T16:35:03.359Z,36.10
2017-09-08T16:37:31.430Z,36.00
2017-09-08T16:39:59.604Z,36.00
2017-09-08T16:42:27.699Z,35.90
2017-09-08T16:44:55.779Z,35.90
2017-09-08T16:47:24.551Z,35.90
2017-09-08T16:49:56.049Z,35.90
2017-09-08T16:52:26.228Z,35.90
2017-09-08T16:54:54.460Z,35.90
2017-09-08T16:57:23.835Z,35.80
2017-09-08T16:59:52.023Z,35.80
2017-09-08T17:02:22.240Z,35.90
2017-09-08T17:04:51.578Z,35.80
2017-09-08T17:07:20.096Z,35.80
2017-09-08T17:09:48.168Z,35.80
2017-09-08T17:12:16.361Z,35.80
2017-09-08T17:14:44.756Z,35.80
2017-09-08T17:17:13.908Z,35.70
2017-09-08T17:19:42.644Z,35.70
2017-09-08T17:22:12.100Z,35.60
2017-09-08T17:24:41.412Z,35.60
2017-09-08T17:27:10.161Z,35.50
2017-09-08T17:29:39.617Z,35.50
2017-09-08T17:32:08.028Z,35.50
2017-09-08T17:34:37.656Z,35.50
2017-09-08T17:37:06.120Z,35.50
2017-09-08T17:39:35.572Z,35.50
2017-09-08T17:42:04.214Z,35.50
2017-09-08T17:44:33.361Z,35.50
2017-09-08T17:47:01.960Z,35.40
2017-09-08T17:49:30.781Z,35.40
2017-09-08T17:52:00.156Z,35.50
2017-09-08T17:54:29.414Z,35.50
2017-09-08T17:59:42.509Z,35.50
2017-09-08T18:02:11.104Z,35.50
2017-09-08T18:04:39.916Z,35.50
2017-09-08T18:07:08.619Z,35.40
2017-09-08T18:09:37.663Z,35.40
2017-09-08T18:12:06.540Z,35.20
2017-09-08T18:14:35.018Z,35.10
2017-09-08T18:17:03.554Z,35.20
2017-09-08T18:19:32.822Z,35.10
2017-09-08T18:22:01.433Z,35.10
2017-09-08T18:24:34.600Z,35.00
2017-09-08T18:27:03.889Z,35.00
2017-09-08T18:29:32.561Z,35.00
2017-09-08T18:32:01.372Z,35.00
2017-09-08T18:34:29.480Z,35.00
2017-09-08T18:36:59.112Z,35.00
2017-09-08T18:39:28.254Z,35.00
2017-09-08T18:41:56.356Z,35.00
2017-09-08T18:44:25.509Z,35.00
2017-09-08T18:46:54.139Z,35.00
2017-09-08T18:49:23.340Z,35.00
2017-09-08T18:51:52.755Z,35.00
2017-09-08T18:54:23.494Z,35.10
2017-09-08T18:56:52.173Z,35.00
2017-09-08T18:59:21.899Z,35.00
2017-09-08T19:01:50.832Z,35.00
2017-09-08T19:04:19.563Z,35.00
2017-09-08T19:06:49.087Z,35.00
2017-09-08T19:09:17.458Z,35.00
2017-09-08T19:11:46.467Z,34.90
2017-09-08T19:14:15.198Z,34.90
2017-09-08T19:16:43.992Z,34.80
2017-09-08T19:19:12.271Z,34.80
2017-09-08T19:21:40.535Z,34.80
2017-09-08T19:24:08.903Z,34.80
2017-09-08T19:26:37.423Z,34.80
2017-09-08T19:29:05.695Z,34.80
2017-09-08T19:31:34.491Z,34.80
2017-09-08T19:34:03.619Z,34.80
2017-09-08T19:36:31.878Z,34.80
2017-09-08T19:39:01.359Z,34.90
2017-09-08T19:41:30.671Z,34.80
2017-09-08T19:44:04.871Z,34.90
2017-09-08T19:46:33.855Z,34.80
2017-09-08T19:49:02.151Z,34.80
2017-09-08T19:51:31.912Z,34.70
2017-09-08T19:54:00.638Z,34.70
2017-09-08T19:56:29.804Z,34.70
2017-09-08T19:58:58.695Z,34.70
2017-09-08T20:01:27.384Z,34.70
2017-09-08T20:03:55.742Z,34.70
2017-09-08T20:06:25.419Z,34.70
2017-09-08T20:08:53.695Z,34.70
2017-09-08T20:11:22.067Z,34.70
2017-09-08T20:13:50.323Z,34.70
2017-09-08T20:16:18.583Z,34.60
2017-09-08T20:18:47.584Z,34.70
2017-09-08T20:21:16.514Z,34.70
2017-09-08T20:23:44.783Z,34.60
2017-09-08T20:26:13.689Z,34.60
2017-09-08T20:28:43.388Z,34.60
2017-09-08T20:31:12.039Z,34.60
2017-09-08T20:33:40.932Z,34.50
2017-09-08T20:36:09.663Z,34.50
2017-09-08T20:38:38.456Z,34.50
2017-09-08T20:41:07.437Z,34.50
2017-09-08T20:43:36.332Z,34.60
2017-09-08T20:46:04.864Z,34.50
2017-09-08T20:48:34.342Z,34.50
2017-09-08T20:51:03.043Z,34.50
2017-09-08T20:53:32.880Z,34.60
2017-09-08T20:56:01.979Z,34.60
2017-09-08T20:58:30.867Z,34.60
2017-09-08T21:00:59.696Z,34.50
2017-09-08T21:03:28.059Z,34.50
2017-09-08T21:05:57.035Z,34.40
2017-09-08T21:08:25.984Z,34.50
2017-09-08T21:10:55.031Z,34.40
2017-09-08T21:13:23.864Z,34.40
2017-09-08T21:15:52.599Z,34.40
2017-09-08T21:18:21.637Z,34.40
2017-09-08T21:20:50.429Z,34.40
2017-09-08T21:23:19.320Z,34.50
2017-09-08T21:25:48.132Z,34.40
2017-09-08T21:28:16.811Z,34.40
2017-09-08T21:30:45.603Z,34.40
2017-09-08T21:33:14.491Z,34.40
2017-09-08T21:35:43.326Z,34.40
2017-09-08T21:38:12.267Z,34.30
2017-09-08T21:40:41.425Z,34.30
2017-09-08T21:43:10.252Z,34.30
2017-09-08T21:45:39.140Z,34.40
2017-09-08T21:48:08.559Z,34.40
2017-09-08T21:50:37.399Z,34.30
2017-09-08T21:53:06.229Z,34.40
2017-09-08T21:55:35.035Z,34.40
2017-09-08T21:58:03.304Z,34.30
2017-09-08T22:00:32.147Z,34.30
2017-09-08T22:03:01.147Z,34.30
2017-09-08T22:05:30.078Z,34.30
2017-09-08T22:07:58.966Z,34.30
2017-09-08T22:10:27.687Z,34.30
2017-09-08T22:12:57.265Z,34.30
2017-09-08T22:15:26.054Z,34.20
2017-09-08T22:17:54.403Z,34.20
2017-09-08T22:20:23.134Z,34.30
2017-09-08T22:22:51.867Z,34.30
2017-09-08T22:25:21.747Z,34.20
2017-09-08T22:27:50.323Z,34.20
2017-09-08T22:30:19.419Z,34.20
2017-09-08T22:32:47.968Z,34.10
2017-09-08T22:35:16.616Z,34.20
2017-09-08T22:37:46.248Z,34.20
2017-09-08T22:40:15.240Z,34.20
2017-09-08T22:42:44.033Z,34.20
2017-09-08T22:45:12.963Z,34.10
2017-09-08T22:47:41.412Z,34.10
2017-09-08T22:50:10.507Z,34.10
2017-09-08T22:52:39.238Z,34.10
2017-09-08T22:55:08.247Z,34.10
2017-09-08T22:57:36.923Z,34.10
2017-09-08T23:00:05.216Z,34.10
2017-09-08T23:02:34.048Z,34.10
2017-09-08T23:05:02.786Z,34.10
2017-09-08T23:07:31.575Z,34.00
2017-09-08T23:09:59.923Z,34.00
2017-09-08T23:12:28.702Z,34.00
2017-09-08T23:14:57.532Z,34.00
2017-09-08T23:17:26.423Z,34.00
2017-09-08T23:19:54.679Z,34.00
2017-09-08T23:22:23.243Z,34.00
2017-09-08T23:24:52.126Z,33.90
2017-09-08T23:27:20.763Z,34.00
2017-09-08T23:29:49.642Z,34.00
2017-09-08T23:32:18.636Z,34.00
2017-09-08T23:34:47.531Z,34.00
2017-09-08T23:37:15.805Z,33.90
2017-09-08T23:39:44.527Z,34.00
2017-09-08T23:42:13.963Z,33.80
2017-09-08T23:44:42.655Z,33.80
2017-09-08T23:47:11.487Z,33.80
2017-09-08T23:49:45.403Z,33.80
2017-09-08T23:52:15.206Z,33.80
2017-09-08T23:54:44.088Z,33.80
2017-09-08T23:57:12.635Z,33.80
2017-09-08T23:59:41.535Z,33.80
